Time;durP1;ratioP1;P1;durP2;ratioP2;P2;SDS_P1;SDS_P2;PMS_P1;PMS_P2;Temp;Humidity;BMP_temperature;BMP_pressure;BME280_temperature;BME280_humidity;BME280_pressure;Samples;Min_cycle;Max_cycle;Signal;HPM_P1;HPM_P2
2024/02/26 00:00:10;;;;;;;5.97;5.37;;;16.30;61.70;;;;;;5031961;28;20479;-79
2024/02/26 00:02:39;;;;;;;5.73;4.97;;;16.30;61.90;;;;;;5030706;28;20539;-79
2024/02/26 00:05:08;;;;;;;5.77;5.07;;;16.30;61.80;;;;;;5032578;28;20498;-78
2024/02/26 00:07:37;;;;;;;5.37;4.87;;;16.30;61.70;;;;;;5033757;28;20455;-78
2024/02/26 00:10:06;;;;;;;6.00;5.07;;;16.30;61.50;;;;;;5034772;28;20499;-80
2024/02/26 00:12:36;;;;;;;5.97;5.30;;;16.30;61.70;;;;;;5035190;28;20478;-78
2024/02/26 00:15:04;;;;;;;4.90;4.50;;;16.30;61.50;;;;;;5033465;28;20515;-78
2024/02/26 00:17:32;;;;;;;5.70;5.20;;;16.20;61.50;;;;;;5025803;28;20456;-80
2024/02/26 00:20:01;;;;;;;5.73;5.10;;;16.20;61.40;;;;;;5035792;28;20448;-80
2024/02/26 00:22:29;;;;;;;5.10;4.60;;;16.20;61.40;;;;;;5035549;28;20948;-78
2024/02/26 00:24:57;;;;;;;8.17;4.97;;;16.20;61.50;;;;;;5036350;28;20479;-80
2024/02/26 00:27:25;;;;;;;6.57;5.47;;;16.10;61.20;;;;;;5036192;28;20455;-80
2024/02/26 00:29:55;;;;;;;5.40;4.90;;;16.10;61.30;;;;;;5038881;28;20441;-79
2024/02/26 00:32:23;;;;;;;10.10;5.00;;;16.10;61.00;;;;;;5047564;28;20548;-80
2024/02/26 00:34:51;;;;;;;4.70;4.30;;;16.10;61.30;;;;;;5040122;28;20490;-81
2024/02/26 00:37:19;;;;;;;7.43;5.57;;;16.10;61.10;;;;;;5052831;28;20451;-80
2024/02/26 00:39:48;;;;;;;7.43;5.50;;;16.10;61.30;;;;;;5048715;28;20482;-80
2024/02/26 00:42:16;;;;;;;6.37;5.37;;;16.10;61.00;;;;;;5033051;28;20443;-80
2024/02/26 00:44:44;;;;;;;7.97;5.03;;;16.10;60.90;;;;;;5043515;28;20490;-80
2024/02/26 00:47:13;;;;;;;6.27;5.30;;;16.00;60.80;;;;;;5047381;28;20509;-80
2024/02/26 00:49:40;;;;;;;5.63;5.03;;;16.00;61.30;;;;;;5038267;28;20806;-79
2024/02/26 00:52:08;;;;;;;7.37;5.00;;;16.00;61.20;;;;;;5049832;28;20435;-80
2024/02/26 00:54:37;;;;;;;7.17;5.00;;;16.00;60.90;;;;;;5034196;28;20468;-80
2024/02/26 00:57:05;;;;;;;5.90;5.30;;;16.00;61.00;;;;;;5047873;28;20482;-79
2024/02/26 00:59:32;;;;;;;5.17;4.67;;;15.90;60.80;;;;;;5040657;28;20444;-78
2024/02/26 01:02:02;;;;;;;5.87;5.30;;;15.90;60.90;;;;;;5049531;28;20451;-77
2024/02/26 01:04:32;;;;;;;5.00;4.50;;;15.90;60.90;;;;;;5037905;28;20452;-78
2024/02/26 01:07:00;;;;;;;6.10;4.60;;;15.90;60.80;;;;;;5041453;28;20447;-78
2024/02/26 01:09:28;;;;;;;7.80;5.20;;;15.90;60.70;;;;;;5034695;28;20444;-79
2024/02/26 01:11:56;;;;;;;7.30;4.37;;;15.90;60.80;;;;;;5032997;28;20474;-78
2024/02/26 01:14:23;;;;;;;6.70;5.20;;;15.80;60.80;;;;;;5038985;28;20546;-78
2024/02/26 01:16:52;;;;;;;5.83;4.60;;;15.90;60.80;;;;;;5034437;28;20527;-77
2024/02/26 01:19:20;;;;;;;5.43;4.93;;;15.80;60.60;;;;;;5034838;28;20531;-79
2024/02/26 01:21:49;;;;;;;4.90;4.40;;;15.80;60.90;;;;;;5041274;28;20449;-79
2024/02/26 01:24:18;;;;;;;7.20;4.93;;;15.80;60.80;;;;;;5043333;28;20463;-79
2024/02/26 01:26:46;;;;;;;4.90;4.40;;;15.80;60.80;;;;;;5034906;28;20487;-79
2024/02/26 01:29:14;;;;;;;5.93;4.07;;;15.70;60.50;;;;;;5034161;28;20451;-78
2024/02/26 01:31:42;;;;;;;5.93;4.40;;;15.80;60.80;;;;;;5033150;28;20546;-79
2024/02/26 01:34:10;;;;;;;5.30;4.80;;;15.70;60.50;;;;;;5035223;28;20519;-78
2024/02/26 01:36:38;;;;;;;4.60;4.20;;;15.70;60.40;;;;;;5026414;28;20504;-79
2024/02/26 01:39:07;;;;;;;4.63;4.27;;;15.70;60.60;;;;;;5034868;28;20463;-78
2024/02/26 01:41:35;;;;;;;4.50;4.10;;;15.70;60.60;;;;;;5033096;28;20506;-78
2024/02/26 01:44:03;;;;;;;5.10;4.60;;;15.70;60.40;;;;;;5034062;28;20486;-78
2024/02/26 01:46:31;;;;;;;6.93;4.80;;;15.70;60.60;;;;;;5035112;28;20566;-78
2024/02/26 01:48:59;;;;;;;5.67;4.60;;;15.60;60.40;;;;;;5035003;28;20482;-79
2024/02/26 01:51:28;;;;;;;6.50;4.60;;;15.60;60.40;;;;;;5034869;28;20467;-79
2024/02/26 01:53:56;;;;;;;5.37;4.87;;;15.60;60.40;;;;;;5034380;28;20443;-78
2024/02/26 01:56:30;;;;;;;4.70;4.30;;;15.60;60.50;;;;;;5031904;28;20465;-77
2024/02/26 01:58:58;;;;;;;5.40;4.73;;;15.60;60.20;;;;;;5031301;28;20459;-76
2024/02/26 02:01:26;;;;;;;4.60;3.97;;;15.60;60.30;;;;;;5032024;28;20494;-76
2024/02/26 02:03:54;;;;;;;4.73;4.30;;;15.60;60.30;;;;;;5032081;28;20446;-77
2024/02/26 02:06:22;;;;;;;4.70;4.30;;;15.50;60.40;;;;;;5027536;28;20487;-76
2024/02/26 02:08:50;;;;;;;4.20;3.90;;;15.50;60.10;;;;;;5032017;28;20612;-77
2024/02/26 02:11:18;;;;;;;5.07;4.57;;;15.50;60.30;;;;;;5032287;28;20505;-77
2024/02/26 02:13:48;;;;;;;4.67;4.27;;;15.50;60.20;;;;;;5031758;28;20450;-76
2024/02/26 02:16:17;;;;;;;4.40;4.07;;;15.50;60.40;;;;;;5031394;28;20562;-77
2024/02/26 02:18:45;;;;;;;5.43;4.40;;;15.50;60.30;;;;;;5031902;28;20447;-77
2024/02/26 02:21:14;;;;;;;5.07;4.30;;;15.50;60.40;;;;;;5031861;28;20451;-78
2024/02/26 02:23:46;;;;;;;4.60;4.00;;;15.50;60.30;;;;;;5031853;28;20454;-77
2024/02/26 02:26:14;;;;;;;4.70;4.30;;;15.50;60.10;;;;;;5032382;28;20522;-76
2024/02/26 02:28:42;;;;;;;4.83;4.20;;;15.40;60.20;;;;;;5035804;28;20474;-77
2024/02/26 02:31:10;;;;;;;5.57;4.07;;;15.40;60.30;;;;;;5035409;28;20555;-77
2024/02/26 02:33:38;;;;;;;4.50;4.10;;;15.40;60.30;;;;;;5035834;28;20444;-76
2024/02/26 02:36:09;;;;;;;4.67;4.27;;;15.40;60.20;;;;;;5036194;28;20538;-77
2024/02/26 02:38:39;;;;;;;4.77;4.27;;;15.40;60.20;;;;;;5035700;28;20450;-77
2024/02/26 02:41:07;;;;;;;4.63;4.27;;;15.40;60.30;;;;;;5035745;28;20466;-78
2024/02/26 02:43:35;;;;;;;4.53;4.00;;;15.30;60.30;;;;;;5040374;28;20487;-77
2024/02/26 02:46:03;;;;;;;4.23;3.90;;;15.30;60.30;;;;;;5046653;28;20497;-77
2024/02/26 02:52:12;;;;;;;4.70;4.30;;;15.30;60.20;;;;;;5041826;28;20395;-77
2024/02/26 02:54:42;;;;;;;4.40;4.03;;;15.30;60.20;;;;;;5035682;28;20470;-77
2024/02/26 02:57:10;;;;;;;4.13;3.83;;;15.30;60.30;;;;;;5031802;28;20451;-77
2024/02/26 02:59:38;;;;;;;3.90;3.60;;;15.30;60.20;;;;;;5035404;28;20439;-77
2024/02/26 03:02:07;;;;;;;4.47;4.07;;;15.30;60.20;;;;;;5036703;28;20453;-78
2024/02/26 03:04:35;;;;;;;4.00;3.70;;;15.20;60.10;;;;;;5036584;28;20455;-78
2024/02/26 03:07:03;;;;;;;4.70;4.10;;;15.20;60.10;;;;;;5036708;28;20503;-77
2024/02/26 03:09:31;;;;;;;6.93;3.87;;;15.20;60.10;;;;;;5036497;28;20440;-77
2024/02/26 03:12:00;;;;;;;4.50;4.10;;;15.20;60.00;;;;;;5036322;28;20475;-78
2024/02/26 03:14:28;;;;;;;10.13;4.07;;;15.20;60.10;;;;;;5024247;28;20456;-78
2024/02/26 03:16:56;;;;;;;3.87;3.57;;;15.20;60.00;;;;;;5017150;28;20471;-78
2024/02/26 03:19:24;;;;;;;4.17;3.87;;;15.20;60.00;;;;;;5016230;28;20452;-78
2024/02/26 03:21:54;;;;;;;8.33;4.00;;;15.20;59.90;;;;;;5012413;28;20515;-78
2024/02/26 03:24:22;;;;;;;5.63;3.50;;;15.20;60.00;;;;;;5016858;28;20536;-78
2024/02/26 03:26:51;;;;;;;4.50;4.10;;;15.20;59.80;;;;;;5016341;28;20499;-78
2024/02/26 03:29:21;;;;;;;4.57;4.00;;;15.20;59.80;;;;;;5015960;28;20455;-78
2024/02/26 03:31:49;;;;;;;4.07;3.77;;;15.20;60.30;;;;;;5024105;28;20509;-78
2024/02/26 03:34:19;;;;;;;4.87;4.47;;;15.20;60.10;;;;;;5036563;28;20610;-78
2024/02/26 03:36:47;;;;;;;3.90;3.60;;;15.10;59.90;;;;;;5036114;28;20451;-78
2024/02/26 03:39:15;;;;;;;4.60;4.13;;;15.10;60.00;;;;;;5036523;28;20459;-78
2024/02/26 03:41:43;;;;;;;4.30;3.90;;;15.10;59.90;;;;;;5036822;28;20442;-78
2024/02/26 03:44:11;;;;;;;3.80;3.47;;;15.20;59.90;;;;;;5035906;28;20455;-78
2024/02/26 03:46:42;;;;;;;4.13;3.73;;;15.10;59.70;;;;;;5036401;28;20559;-78
2024/02/26 03:49:10;;;;;;;4.20;3.87;;;15.10;59.80;;;;;;5037045;28;20463;-78
2024/02/26 03:51:39;;;;;;;3.90;3.60;;;15.10;60.00;;;;;;5037487;28;20451;-78
2024/02/26 03:54:07;;;;;;;5.67;4.57;;;15.10;59.90;;;;;;5036865;28;20494;-78
2024/02/26 03:56:35;;;;;;;4.30;4.00;;;15.10;60.00;;;;;;5036714;28;20471;-78
2024/02/26 03:59:03;;;;;;;3.87;3.57;;;15.10;60.00;;;;;;5036294;28;20534;-79
2024/02/26 04:01:31;;;;;;;4.03;3.73;;;15.10;60.10;;;;;;5034113;28;20486;-78
2024/02/26 04:04:00;;;;;;;3.83;3.53;;;15.10;60.10;;;;;;5035317;28;20444;-78
2024/02/26 04:06:29;;;;;;;4.00;3.70;;;15.10;59.80;;;;;;5039077;28;20529;-77
2024/02/26 04:08:57;;;;;;;3.93;3.33;;;15.10;60.10;;;;;;5034234;28;20447;-78
2024/02/26 04:11:25;;;;;;;8.30;4.00;;;15.10;60.10;;;;;;5027918;28;20441;-78
2024/02/26 04:13:53;;;;;;;4.10;3.70;;;15.10;60.10;;;;;;5016264;28;20441;-77
2024/02/26 04:16:21;;;;;;;4.20;3.90;;;15.10;60.10;;;;;;5033709;28;20448;-77
2024/02/26 04:18:49;;;;;;;3.67;3.37;;;15.00;60.00;;;;;;5033870;28;20439;-77
2024/02/26 04:21:18;;;;;;;4.03;3.73;;;15.00;60.10;;;;;;5033999;28;20439;-78
2024/02/26 04:23:46;;;;;;;3.77;3.57;;;15.00;59.90;;;;;;5033385;28;20454;-78
2024/02/26 04:26:14;;;;;;;4.90;3.50;;;15.00;60.20;;;;;;5027059;28;20464;-78
2024/02/26 04:28:43;;;;;;;4.50;4.10;;;15.00;60.30;;;;;;5033697;28;20455;-76
2024/02/26 04:31:11;;;;;;;3.87;3.57;;;15.00;60.20;;;;;;5033716;28;20444;-78
2024/02/26 04:33:39;;;;;;;4.10;3.70;;;15.00;60.20;;;;;;5033180;28;20546;-78
2024/02/26 04:36:15;;;;;;;4.03;3.70;;;15.00;60.20;;;;;;5029065;28;20498;-77
2024/02/26 04:38:44;;;;;;;3.73;3.43;;;15.00;60.10;;;;;;5033868;28;20463;-78
2024/02/26 04:41:12;;;;;;;5.00;4.10;;;15.00;59.80;;;;;;5033884;28;20440;-78
2024/02/26 04:43:41;;;;;;;4.87;3.30;;;15.00;60.40;;;;;;5033567;28;20447;-77
2024/02/26 04:46:09;;;;;;;4.20;3.90;;;15.00;60.20;;;;;;5027303;28;20455;-78
2024/02/26 04:48:38;;;;;;;4.90;3.53;;;15.00;60.10;;;;;;5033749;28;20497;-78
2024/02/26 04:51:06;;;;;;;3.53;3.33;;;15.00;60.50;;;;;;5033696;28;20451;-78
2024/02/26 04:53:34;;;;;;;4.10;3.70;;;15.00;60.40;;;;;;5033674;28;20479;-78
2024/02/26 04:56:04;;;;;;;3.97;3.57;;;15.00;60.20;;;;;;5033663;28;20494;-78
2024/02/26 04:58:31;;;;;;;3.73;3.53;;;14.90;60.00;;;;;;5035032;28;20531;-78
2024/02/26 05:00:59;;;;;;;4.17;3.77;;;14.90;60.20;;;;;;5026784;28;20497;-78
2024/02/26 05:03:27;;;;;;;3.83;3.53;;;14.90;60.20;;;;;;5040671;28;20423;-75
2024/02/26 05:05:57;;;;;;;5.37;4.13;;;14.90;60.20;;;;;;5032870;28;20469;-78
2024/02/26 05:08:25;;;;;;;3.60;3.30;;;14.90;60.50;;;;;;5034091;28;20474;-78
2024/02/26 05:10:53;;;;;;;3.90;3.50;;;14.90;60.60;;;;;;5033680;28;20467;-77
2024/02/26 05:13:23;;;;;;;4.20;3.80;;;14.90;60.40;;;;;;5033033;28;20447;-78
2024/02/26 05:15:52;;;;;;;4.33;3.87;;;14.90;60.20;;;;;;5032792;28;20498;-78
2024/02/26 05:18:20;;;;;;;4.30;3.97;;;14.90;60.40;;;;;;5032722;28;20452;-77
2024/02/26 05:20:48;;;;;;;4.00;3.70;;;14.90;60.60;;;;;;5032488;28;20563;-78
2024/02/26 05:23:16;;;;;;;4.63;4.23;;;14.90;60.30;;;;;;5033363;28;20451;-78
2024/02/26 05:25:47;;;;;;;3.43;3.23;;;14.90;60.30;;;;;;5033580;28;20483;-78
2024/02/26 05:28:15;;;;;;;3.87;3.57;;;14.90;60.30;;;;;;5033193;28;20502;-78
2024/02/26 05:30:45;;;;;;;4.03;3.73;;;14.90;60.40;;;;;;5021153;28;20468;-78
2024/02/26 05:33:13;;;;;;;4.40;3.73;;;14.90;60.40;;;;;;5032810;28;20460;-77
2024/02/26 05:35:45;;;;;;;3.53;3.23;;;14.90;60.30;;;;;;5032997;28;20468;-77
2024/02/26 05:38:13;;;;;;;3.23;3.03;;;14.90;60.30;;;;;;5034900;28;20502;-78
2024/02/26 05:40:41;;;;;;;4.00;3.20;;;14.90;60.40;;;;;;5037237;28;20938;-78
2024/02/26 05:43:09;;;;;;;3.80;3.40;;;14.90;60.40;;;;;;5034510;28;20452;-78
2024/02/26 05:45:37;;;;;;;3.57;3.30;;;14.90;60.40;;;;;;5026215;28;20543;-77
2024/02/26 05:48:08;;;;;;;3.30;3.10;;;14.90;60.60;;;;;;5034195;28;20547;-78
2024/02/26 05:50:36;;;;;;;3.20;3.00;;;14.90;60.60;;;;;;5048614;28;20446;-77
2024/02/26 05:53:05;;;;;;;3.80;3.50;;;14.90;60.40;;;;;;5017364;28;20513;-78
2024/02/26 05:55:33;;;;;;;3.37;3.17;;;14.90;60.60;;;;;;5030279;28;20459;-78
2024/02/26 05:58:01;;;;;;;3.60;3.40;;;14.90;60.40;;;;;;5039408;28;20447;-78
2024/02/26 06:00:29;;;;;;;3.77;3.50;;;14.90;60.50;;;;;;5019056;28;20542;-78
2024/02/26 06:02:57;;;;;;;3.30;3.10;;;14.90;60.40;;;;;;5037933;28;20507;-78
2024/02/26 06:05:27;;;;;;;3.73;3.40;;;14.80;60.40;;;;;;5035322;28;20467;-78
2024/02/26 06:07:55;;;;;;;4.00;3.50;;;14.80;60.60;;;;;;5037270;28;20478;-78
2024/02/26 06:10:23;;;;;;;3.70;3.40;;;14.80;60.70;;;;;;5039503;28;20471;-78
2024/02/26 06:12:51;;;;;;;3.93;3.57;;;14.80;60.30;;;;;;5038886;28;20478;-78
2024/02/26 06:15:19;;;;;;;3.47;3.20;;;14.80;60.40;;;;;;5038777;28;20969;-78
2024/02/26 06:17:46;;;;;;;3.93;3.63;;;14.80;60.60;;;;;;5038504;28;20436;-78
2024/02/26 06:20:15;;;;;;;3.60;3.30;;;14.80;60.80;;;;;;5034242;28;20435;-78
2024/02/26 06:22:44;;;;;;;3.43;3.20;;;14.80;60.60;;;;;;5022378;28;20463;-78
2024/02/26 06:25:12;;;;;;;3.13;2.93;;;14.80;60.50;;;;;;5036660;28;20554;-77
2024/02/26 06:27:40;;;;;;;3.40;3.10;;;14.80;60.60;;;;;;5035816;28;20498;-77
2024/02/26 06:30:10;;;;;;;3.67;3.40;;;14.80;60.70;;;;;;5036153;28;20439;-77
2024/02/26 06:32:39;;;;;;;3.40;3.10;;;14.80;60.60;;;;;;5036130;28;20424;-77
2024/02/26 06:35:09;;;;;;;3.67;3.37;;;14.80;60.60;;;;;;5036163;28;20462;-78
2024/02/26 06:37:37;;;;;;;3.53;3.30;;;14.80;60.60;;;;;;5025582;28;21001;-75
2024/02/26 06:40:08;;;;;;;4.27;3.87;;;14.80;60.70;;;;;;5015860;28;20527;-77
2024/02/26 06:42:36;;;;;;;6.10;5.10;;;14.80;60.60;;;;;;5042254;28;20468;-78
2024/02/26 06:45:07;;;;;;;5.77;4.77;;;14.80;60.50;;;;;;5055192;28;20490;-76
2024/02/26 06:47:35;;;;;;;5.50;4.93;;;14.80;60.30;;;;;;5035180;28;20495;-76
2024/02/26 06:50:04;;;;;;;5.83;4.83;;;14.80;60.00;;;;;;5035106;28;21041;-78
2024/02/26 06:52:32;;;;;;;6.20;5.40;;;14.80;60.00;;;;;;5036445;28;20467;-78
2024/02/26 06:55:00;;;;;;;6.60;5.30;;;14.80;60.10;;;;;;5039372;28;20499;-78
2024/02/26 06:57:30;;;;;;;7.70;5.67;;;14.70;59.70;;;;;;5044440;28;20454;-77
2024/02/26 06:59:59;;;;;;;12.73;6.00;;;14.80;59.80;;;;;;5043176;28;20443;-77
2024/02/26 07:02:27;;;;;;;9.17;6.10;;;14.70;59.70;;;;;;5061076;23;20495;-77
2024/02/26 07:04:56;;;;;;;8.40;5.97;;;14.80;59.70;;;;;;5030940;28;21006;-77
2024/02/26 07:07:24;;;;;;;8.00;6.50;;;14.80;59.50;;;;;;5029927;28;20479;-77
2024/02/26 07:09:51;;;;;;;7.13;5.70;;;14.80;59.40;;;;;;5030837;28;20476;-78
2024/02/26 07:12:21;;;;;;;8.00;6.13;;;14.80;59.30;;;;;;5028913;28;20534;-78
2024/02/26 07:14:52;;;;;;;10.10;6.97;;;14.80;59.20;;;;;;5024233;28;20515;-77
2024/02/26 07:17:20;;;;;;;9.10;6.07;;;14.80;59.40;;;;;;5026331;28;20447;-77
2024/02/26 07:19:48;;;;;;;8.10;6.17;;;14.80;59.40;;;;;;5024148;28;20447;-78
2024/02/26 07:22:16;;;;;;;7.93;6.17;;;14.80;59.20;;;;;;5026060;28;20486;-78
2024/02/26 07:24:44;;;;;;;7.87;6.20;;;14.80;59.10;;;;;;5024581;28;20468;-77
2024/02/26 07:27:12;;;;;;;7.57;5.53;;;14.90;59.20;;;;;;5022442;28;20445;-77
2024/02/26 07:29:43;;;;;;;8.80;5.90;;;14.90;59.00;;;;;;5023280;28;20575;-77
2024/02/26 07:32:12;;;;;;;7.97;6.13;;;14.90;58.90;;;;;;5024012;28;20465;-78
2024/02/26 07:34:41;;;;;;;12.00;6.20;;;14.90;59.10;;;;;;5025281;28;20540;-77
2024/02/26 07:37:09;;;;;;;8.97;6.60;;;14.90;59.10;;;;;;5031421;28;20540;-78
2024/02/26 07:39:38;;;;;;;8.73;6.20;;;14.90;58.90;;;;;;5029038;28;20501;-77
2024/02/26 07:42:06;;;;;;;11.90;6.67;;;15.00;59.10;;;;;;5025068;28;20468;-77
2024/02/26 07:44:34;;;;;;;9.97;6.30;;;15.00;59.00;;;;;;5026187;28;20521;-77
2024/02/26 07:47:06;;;;;;;9.03;6.33;;;15.00;59.00;;;;;;5026317;28;20448;-78
2024/02/26 07:49:35;;;;;;;8.97;6.30;;;15.00;58.90;;;;;;5030811;28;20544;-78
2024/02/26 07:52:06;;;;;;;8.60;6.07;;;15.00;59.00;;;;;;5026423;28;20467;-78
2024/02/26 07:54:35;;;;;;;8.80;6.47;;;15.10;59.10;;;;;;5026686;28;20959;-79
2024/02/26 07:57:05;;;;;;;8.63;6.43;;;15.10;58.90;;;;;;5024108;28;20444;-79
2024/02/26 07:59:33;;;;;;;8.93;6.77;;;15.10;58.80;;;;;;5025671;28;20439;-78
2024/02/26 08:02:03;;;;;;;7.97;6.03;;;15.10;58.90;;;;;;5022487;28;20464;-79
2024/02/26 08:04:31;;;;;;;8.30;5.63;;;15.10;58.90;;;;;;5021523;28;20457;-79
2024/02/26 08:07:00;;;;;;;8.73;6.20;;;15.10;58.90;;;;;;5021274;28;20484;-79
2024/02/26 08:09:29;;;;;;;8.33;6.00;;;15.10;58.80;;;;;;5023127;28;20502;-79
2024/02/26 08:11:57;;;;;;;6.17;5.50;;;15.10;58.90;;;;;;5021403;28;20453;-79
2024/02/26 08:14:25;;;;;;;10.87;5.90;;;15.10;58.90;;;;;;5024073;28;20511;-80
2024/02/26 08:16:53;;;;;;;7.73;5.47;;;15.10;58.80;;;;;;5037387;28;20453;-81
2024/02/26 08:19:21;;;;;;;6.57;5.23;;;15.20;59.00;;;;;;5036664;28;20476;-79
2024/02/26 08:21:49;;;;;;;7.00;5.63;;;15.20;58.80;;;;;;5038110;28;20447;-80
2024/02/26 08:24:19;;;;;;;5.97;4.90;;;15.20;58.90;;;;;;5028416;28;20463;-80
2024/02/26 08:26:48;;;;;;;7.00;5.20;;;15.20;59.00;;;;;;5034774;28;20445;-81
2024/02/26 08:29:16;;;;;;;6.83;5.03;;;15.20;58.90;;;;;;5035059;28;20468;-80
2024/02/26 08:31:50;;;;;;;7.77;5.33;;;15.20;58.80;;;;;;5029121;28;20459;-81
2024/02/26 08:34:28;;;;;;;6.60;5.47;;;15.30;58.90;;;;;;5019748;28;20456;-82
2024/02/26 08:36:58;;;;;;;5.50;4.83;;;15.30;58.80;;;;;;5023872;28;20440;-80
2024/02/26 08:39:28;;;;;;;5.90;5.30;;;15.30;58.90;;;;;;5017536;28;20444;-78
2024/02/26 08:41:59;;;;;;;7.70;6.10;;;15.30;59.60;;;;;;5011847;28;20449;-78
2024/02/26 08:44:29;;;;;;;9.60;6.30;;;14.90;56.80;;;;;;5012635;28;20441;-78
2024/02/26 08:46:58;;;;;;;6.87;6.00;;;14.40;54.00;;;;;;5022994;28;20490;-81
2024/02/26 08:49:32;;;;;;;6.00;5.40;;;14.30;55.90;;;;;;5027182;28;20464;-81
2024/02/26 08:52:01;;;;;;;9.97;5.30;;;14.80;55.90;;;;;;5025283;28;20466;-80
2024/02/26 08:54:31;;;;;;;5.97;5.37;;;15.10;55.50;;;;;;5027550;28;20451;-81
2024/02/26 08:56:59;;;;;;;5.73;5.13;;;15.30;55.60;;;;;;5026854;28;20460;-79
2024/02/26 08:59:28;;;;;;;5.97;4.90;;;15.40;55.50;;;;;;5029186;28;20443;-80
2024/02/26 09:01:56;;;;;;;5.50;4.80;;;15.50;55.60;;;;;;5027432;28;20464;-82
2024/02/26 09:04:25;;;;;;;5.50;5.00;;;15.60;55.90;;;;;;5028383;28;20468;-81
2024/02/26 09:06:53;;;;;;;4.80;4.40;;;15.70;55.90;;;;;;5025549;28;20449;-80
2024/02/26 09:09:22;;;;;;;3.90;3.60;;;15.70;56.00;;;;;;5018981;28;20468;-81
2024/02/26 09:11:52;;;;;;;4.40;4.00;;;15.70;56.40;;;;;;5027338;28;20452;-81
2024/02/26 09:14:20;;;;;;;4.33;4.03;;;15.80;56.60;;;;;;5028063;28;20459;-81
2024/02/26 09:23:32;;;;;;;5.17;3.30;;;15.90;57.10;;;;;;4972962;28;20456;-81
2024/02/26 09:26:00;;;;;;;4.37;3.50;;;15.90;57.30;;;;;;5025791;28;20450;-80
2024/02/26 09:28:31;;;;;;;3.10;2.90;;;16.00;57.50;;;;;;5030886;28;20459;-81
2024/02/26 09:30:59;;;;;;;2.83;2.63;;;16.00;57.60;;;;;;5027189;28;20472;-82
2024/02/26 09:33:28;;;;;;;2.77;2.67;;;16.00;57.60;;;;;;5025511;28;20472;-81
2024/02/26 09:35:56;;;;;;;2.90;2.50;;;16.10;57.80;;;;;;5026582;28;20449;-82
2024/02/26 09:38:24;;;;;;;2.87;2.60;;;16.00;57.90;;;;;;5021287;28;20464;-80
2024/02/26 09:40:53;;;;;;;2.70;2.50;;;16.10;58.10;;;;;;5025927;28;20451;-80
2024/02/26 09:43:22;;;;;;;2.63;2.50;;;16.10;58.20;;;;;;5026571;28;20522;-81
2024/02/26 09:45:52;;;;;;;2.77;2.40;;;16.10;58.20;;;;;;5019286;28;20424;-81
2024/02/26 09:48:21;;;;;;;2.30;2.20;;;16.20;58.50;;;;;;5028820;28;20424;-81
2024/02/26 09:50:49;;;;;;;2.13;1.90;;;16.20;58.60;;;;;;5028292;28;20464;-80
2024/02/26 09:53:17;;;;;;;3.47;2.00;;;16.30;58.70;;;;;;5026492;28;20472;-80
2024/02/26 09:55:46;;;;;;;2.40;2.30;;;16.30;58.80;;;;;;5027038;28;20445;-80
2024/02/26 09:58:18;;;;;;;2.30;2.17;;;16.30;58.80;;;;;;5027589;28;20444;-80
2024/02/26 10:00:48;;;;;;;3.37;1.93;;;16.40;59.00;;;;;;5027980;28;20440;-82
2024/02/26 10:03:17;;;;;;;2.30;1.80;;;16.40;58.80;;;;;;5026211;28;20476;-81
2024/02/26 10:05:46;;;;;;;2.07;1.97;;;16.50;59.00;;;;;;5026602;28;20511;-81
2024/02/26 10:08:14;;;;;;;1.70;1.60;;;16.50;59.20;;;;;;5023270;28;20451;-82
2024/02/26 10:10:43;;;;;;;2.10;1.80;;;16.60;59.00;;;;;;5026978;28;20526;-82
2024/02/26 10:13:11;;;;;;;2.00;1.90;;;16.70;59.20;;;;;;5025941;28;20460;-83
2024/02/26 10:15:40;;;;;;;3.00;1.80;;;16.70;59.40;;;;;;5022701;28;20449;-83
2024/02/26 10:18:08;;;;;;;2.20;1.70;;;16.70;59.40;;;;;;5025889;28;20452;-82
2024/02/26 10:20:38;;;;;;;2.70;1.93;;;16.80;59.60;;;;;;5025839;28;20436;-83
2024/02/26 10:23:06;;;;;;;1.97;1.60;;;16.80;59.50;;;;;;5023370;28;20518;-82
2024/02/26 10:25:35;;;;;;;1.90;1.80;;;16.80;59.50;;;;;;5025816;28;20502;-81
2024/02/26 10:28:03;;;;;;;1.67;1.57;;;16.90;59.60;;;;;;5025954;28;20455;-82
2024/02/26 10:30:31;;;;;;;2.63;1.93;;;16.90;59.60;;;;;;5025912;28;20473;-81
2024/02/26 10:33:00;;;;;;;2.30;2.10;;;16.90;59.70;;;;;;5026486;28;20491;-81
2024/02/26 10:35:28;;;;;;;1.70;1.60;;;17.00;59.80;;;;;;5024228;28;20447;-80
2024/02/26 10:37:58;;;;;;;2.90;2.00;;;17.00;59.90;;;;;;5019552;28;20528;-79
2024/02/26 10:40:26;;;;;;;2.37;1.60;;;17.10;59.80;;;;;;5021152;28;20459;-80
2024/02/26 10:42:54;;;;;;;2.20;1.90;;;17.10;60.00;;;;;;5023628;28;20487;-80
2024/02/26 10:45:22;;;;;;;3.17;1.77;;;17.10;60.10;;;;;;5017285;28;20437;-80
2024/02/26 10:47:50;;;;;;;2.40;1.70;;;17.20;60.20;;;;;;5015326;28;20437;-78
2024/02/26 10:50:18;;;;;;;3.13;2.00;;;17.20;60.20;;;;;;5024022;28;20472;-79
2024/02/26 10:52:46;;;;;;;1.80;1.70;;;17.20;60.30;;;;;;5028921;28;20486;-79
2024/02/26 10:55:17;;;;;;;4.80;1.90;;;17.30;60.40;;;;;;5022137;28;20440;-78
2024/02/26 10:57:46;;;;;;;1.63;1.53;;;17.30;60.40;;;;;;5018172;28;20915;-78
2024/02/26 11:00:15;;;;;;;1.67;1.57;;;17.30;60.60;;;;;;5017439;28;20511;-78
2024/02/26 11:02:44;;;;;;;3.43;1.90;;;17.30;60.60;;;;;;5018033;28;21029;-79
2024/02/26 11:05:12;;;;;;;1.67;1.57;;;17.40;60.90;;;;;;5013430;28;20453;-79
2024/02/26 11:07:41;;;;;;;2.30;1.60;;;17.40;60.90;;;;;;5021430;28;20436;-79
2024/02/26 11:10:10;;;;;;;1.83;1.73;;;17.40;61.00;;;;;;5024150;28;20473;-79
2024/02/26 11:12:41;;;;;;;2.13;1.63;;;17.40;61.20;;;;;;5029236;28;20464;-80
2024/02/26 11:15:10;;;;;;;1.93;1.83;;;17.40;61.20;;;;;;5034763;28;20484;-80
2024/02/26 11:17:39;;;;;;;3.20;1.73;;;17.40;61.20;;;;;;5030003;28;20444;-81
2024/02/26 11:20:08;;;;;;;2.50;1.63;;;17.40;61.30;;;;;;5029791;28;20511;-81
2024/02/26 11:22:37;;;;;;;1.80;1.67;;;17.50;61.20;;;;;;5028688;28;20475;-82
2024/02/26 11:25:06;;;;;;;2.50;1.90;;;17.50;61.40;;;;;;5029890;28;20444;-80
2024/02/26 11:27:51;;;;;;;5.17;1.60;;;17.50;61.40;;;;;;5030302;28;20519;-80
2024/02/26 11:30:23;;;;;;;3.03;1.60;;;17.60;61.40;;;;;;5032547;28;20448;-80
2024/02/26 11:32:52;;;;;;;2.53;1.73;;;17.60;61.40;;;;;;5028267;28;20476;-80
2024/02/26 11:35:20;;;;;;;1.83;1.50;;;17.60;61.50;;;;;;5024232;28;20451;-80
2024/02/26 11:37:56;;;;;;;1.87;1.50;;;17.60;61.50;;;;;;5032467;28;20504;-79
2024/02/26 11:40:24;;;;;;;5.43;1.77;;;17.60;61.60;;;;;;5026699;28;20476;-80
2024/02/26 11:42:53;;;;;;;2.80;1.83;;;17.60;61.70;;;;;;5027642;28;20468;-80
2024/02/26 11:45:51;;;;;;;5.20;1.93;;;17.60;61.60;;;;;;5023797;28;20449;-80
2024/02/26 11:48:24;;;;;;;4.03;1.60;;;17.60;62.00;;;;;;5024154;28;20476;-80
2024/02/26 11:50:57;;;;;;;1.50;1.40;;;17.70;61.70;;;;;;5025997;28;20479;-81
2024/02/26 11:53:40;;;;;;;2.63;1.53;;;17.70;61.90;;;;;;5023580;28;20474;-81
2024/02/26 11:56:23;;;;;;;1.43;1.30;;;17.70;62.10;;;;;;5019962;28;20448;-81
2024/02/26 11:59:02;;;;;;;3.30;1.30;;;17.70;62.00;;;;;;5025840;28;20447;-80
2024/02/26 12:01:42;;;;;;;3.53;1.60;;;17.70;61.90;;;;;;5025067;28;20463;-79
2024/02/26 12:04:14;;;;;;;1.70;1.60;;;17.70;62.30;;;;;;5018414;28;20447;-81
2024/02/26 12:06:43;;;;;;;1.70;1.60;;;17.80;62.20;;;;;;5023049;28;20445;-80
2024/02/26 12:09:34;;;;;;;2.67;1.50;;;17.80;62.10;;;;;;5030790;28;20464;-80
2024/02/26 12:12:34;;;;;;;2.23;1.40;;;17.90;62.20;;;;;;5031250;28;20479;-81
2024/02/26 12:15:12;;;;;;;1.70;1.60;;;18.00;62.20;;;;;;5025886;28;20455;-81
2024/02/26 12:17:50;;;;;;;3.07;1.40;;;18.10;61.90;;;;;;5026056;28;20452;-81
2024/02/26 12:20:25;;;;;;;3.00;1.60;;;18.20;61.90;;;;;;5025690;28;20471;-80
2024/02/26 12:22:55;;;;;;;2.70;1.83;;;18.30;61.80;;;;;;5023181;28;20472;-79
2024/02/26 12:25:48;;;;;;;3.73;1.60;;;18.40;61.80;;;;;;5025647;28;20451;-81
2024/02/26 12:28:51;;;;;;;5.23;2.13;;;18.50;61.20;;;;;;5026276;28;20452;-80
2024/02/26 12:31:24;;;;;;;2.00;1.80;;;18.70;61.30;;;;;;5026641;28;20540;-80
2024/02/26 12:34:13;;;;;;;5.47;1.50;;;18.90;61.00;;;;;;5027005;28;20491;-81
2024/02/26 12:36:51;;;;;;;2.90;1.70;;;19.10;61.00;;;;;;5021786;28;20476;-82
2024/02/26 12:42:41;;;;;;;3.33;1.60;;;19.80;60.80;;;;;;5025988;28;20468;-81
2024/02/26 12:45:17;;;;;;;5.13;1.60;;;20.40;60.30;;;;;;5024740;28;20448;-81
2024/02/26 12:47:49;;;;;;;1.47;1.27;;;20.90;59.20;;;;;;5025372;28;20453;-81
2024/02/26 12:50:20;;;;;;;4.40;1.80;;;21.50;58.30;;;;;;5026714;28;20427;-81
2024/02/26 12:52:49;;;;;;;1.30;1.27;;;21.80;57.00;;;;;;5024807;28;20475;-81
2024/02/26 12:55:36;;;;;;;2.63;1.63;;;21.90;56.30;;;;;;5019602;28;20444;-81
2024/02/26 12:58:27;;;;;;;1.70;1.30;;;21.80;56.00;;;;;;5023055;28;20421;-80
2024/02/26 13:00:56;;;;;;;2.40;1.80;;;21.60;56.00;;;;;;5018349;28;20419;-80
2024/02/26 13:03:26;;;;;;;1.83;1.70;;;21.50;56.00;;;;;;5038198;22;20492;-78
2024/02/26 13:05:56;;;;;;;1.60;1.50;;;21.40;56.50;;;;;;5016672;28;20440;-79
2024/02/26 13:08:25;;;;;;;7.60;1.43;;;21.20;56.50;;;;;;5022342;28;20456;-79
2024/02/26 13:10:53;;;;;;;1.50;1.40;;;21.00;56.70;;;;;;5019280;28;20436;-79